WZZ29 EPKK-EPKK
Flight info
| Callsign | WZZ29 |
|---|---|
| Flight time | 0h 23m |
| Altitude | 5000 |
| Route | EPKK/25 KAK |
| Aircraft | A320/M-S/C |
Departure
| Time | 2026-05-06 15:09 |
|---|---|
| Airport | Kraków John Paul II International Airport (EPKK) |
Arrival
| Time | 2026-05-06 15:32 |
|---|---|
| Airport | Kraków John Paul II International Airport (EPKK) |
| Time | Latitude | Longitude | Altitude | Speed | Heading |
|---|---|---|---|---|---|
| 2026-05-06 15:09 | 49.91292 | 19.56133 | 5016 ft | 222 kts | 206° |
| 2026-05-06 15:09 | 49.89876 | 19.55121 | 5026 ft | 224 kts | 206° |
| 2026-05-06 15:10 | 49.88471 | 19.54115 | 5019 ft | 222 kts | 206° |
| 2026-05-06 15:10 | 49.87544 | 19.53445 | 5018 ft | 220 kts | 206° |
| 2026-05-06 15:10 | 49.86134 | 19.52540 | 5023 ft | 222 kts | 193° |
| 2026-05-06 15:10 | 49.84579 | 19.52695 | 5032 ft | 236 kts | 163° |
| 2026-05-06 15:11 | 49.83105 | 19.54249 | 5024 ft | 270 kts | 135° |
| 2026-05-06 15:11 | 49.82210 | 19.56815 | 5022 ft | 276 kts | 107° |
| 2026-05-06 15:11 | 49.82171 | 19.59847 | 5027 ft | 287 kts | 80° |
| 2026-05-06 15:11 | 49.82708 | 19.62829 | 5025 ft | 288 kts | 76° |
| 2026-05-06 15:12 | 49.83258 | 19.65793 | 5027 ft | 287 kts | 76° |
| 2026-05-06 15:12 | 49.83799 | 19.68770 | 5018 ft | 288 kts | 76° |
| 2026-05-06 15:12 | 49.84340 | 19.71785 | 5029 ft | 290 kts | 76° |
| 2026-05-06 15:12 | 49.84857 | 19.74728 | 5019 ft | 285 kts | 76° |
| 2026-05-06 15:13 | 49.85395 | 19.77693 | 5019 ft | 279 kts | 76° |
| 2026-05-06 15:13 | 49.85898 | 19.80525 | 5008 ft | 265 kts | 76° |
| 2026-05-06 15:13 | 49.86384 | 19.83208 | 5019 ft | 252 kts | 76° |
| 2026-05-06 15:13 | 49.86856 | 19.85832 | 5018 ft | 255 kts | 76° |
| 2026-05-06 15:14 | 49.87791 | 19.91021 | 5021 ft | 255 kts | 76° |
| 2026-05-06 15:14 | 49.88257 | 19.93658 | 5027 ft | 253 kts | 76° |
| 2026-05-06 15:14 | 49.88727 | 19.96317 | 5023 ft | 260 kts | 76° |
| 2026-05-06 15:15 | 49.89226 | 19.99182 | 5022 ft | 287 kts | 76° |
| 2026-05-06 15:15 | 49.89745 | 20.02205 | 5013 ft | 285 kts | 76° |
| 2026-05-06 15:15 | 49.90135 | 20.05223 | 5023 ft | 284 kts | 91° |
| 2026-05-06 15:15 | 49.89841 | 20.08221 | 5023 ft | 280 kts | 105° |
| 2026-05-06 15:16 | 49.88957 | 20.14338 | 5023 ft | 279 kts | 105° |
| 2026-05-06 15:16 | 49.88632 | 20.17287 | 5028 ft | 274 kts | 98° |
| 2026-05-06 15:16 | 49.88501 | 20.20151 | 5031 ft | 259 kts | 96° |
| 2026-05-06 15:17 | 49.88378 | 20.22858 | 5030 ft | 245 kts | 96° |
| 2026-05-06 15:17 | 49.88268 | 20.25434 | 5039 ft | 233 kts | 96° |
| 2026-05-06 15:17 | 49.88418 | 20.27875 | 5040 ft | 225 kts | 70° |
| 2026-05-06 15:17 | 49.89050 | 20.30137 | 5050 ft | 233 kts | 66° |
| 2026-05-06 15:18 | 49.89712 | 20.32390 | 5034 ft | 230 kts | 66° |
| 2026-05-06 15:18 | 49.90372 | 20.34639 | 5046 ft | 230 kts | 66° |
| 2026-05-06 15:18 | 49.91034 | 20.36918 | 5046 ft | 230 kts | 66° |
| 2026-05-06 15:18 | 49.91686 | 20.39153 | 5035 ft | 222 kts | 66° |
| 2026-05-06 15:19 | 49.92302 | 20.41270 | 5034 ft | 209 kts | 66° |
| 2026-05-06 15:19 | 49.92895 | 20.43295 | 4974 ft | 205 kts | 66° |
| 2026-05-06 15:19 | 49.93509 | 20.45270 | 4760 ft | 205 kts | 55° |
| 2026-05-06 15:19 | 49.94600 | 20.46656 | 4457 ft | 205 kts | 19° |
| 2026-05-06 15:20 | 49.95972 | 20.46800 | 4251 ft | 195 kts | 341° |
| 2026-05-06 15:20 | 49.97060 | 20.45736 | 4073 ft | 186 kts | 306° |
| 2026-05-06 15:20 | 49.97764 | 20.44013 | 4043 ft | 190 kts | 298° |
| 2026-05-06 15:20 | 49.98461 | 20.42260 | 4038 ft | 190 kts | 299° |
| 2026-05-06 15:21 | 49.99166 | 20.40528 | 4035 ft | 189 kts | 299° |
| 2026-05-06 15:21 | 49.99889 | 20.38765 | 4045 ft | 200 kts | 300° |
| 2026-05-06 15:21 | 50.00636 | 20.36954 | 4036 ft | 198 kts | 299° |
| 2026-05-06 15:21 | 50.01370 | 20.35170 | 4044 ft | 200 kts | 299° |
| 2026-05-06 15:22 | 50.02123 | 20.33342 | 4042 ft | 202 kts | 300° |
| 2026-05-06 15:22 | 50.02874 | 20.31504 | 4029 ft | 200 kts | 300° |
| 2026-05-06 15:22 | 50.03619 | 20.29683 | 4029 ft | 199 kts | 299° |
| 2026-05-06 15:22 | 50.04364 | 20.27867 | 4027 ft | 199 kts | 299° |
| 2026-05-06 15:23 | 50.05126 | 20.25995 | 4030 ft | 210 kts | 299° |
| 2026-05-06 15:23 | 50.05902 | 20.24091 | 4018 ft | 208 kts | 300° |
| 2026-05-06 15:23 | 50.06682 | 20.22178 | 4027 ft | 209 kts | 300° |
| 2026-05-06 15:23 | 50.07460 | 20.20276 | 4019 ft | 207 kts | 299° |
| 2026-05-06 15:24 | 50.08238 | 20.18368 | 4017 ft | 208 kts | 299° |
| 2026-05-06 15:24 | 50.09013 | 20.16470 | 4018 ft | 208 kts | 298° |
| 2026-05-06 15:24 | 50.09793 | 20.14555 | 4019 ft | 210 kts | 299° |
| 2026-05-06 15:24 | 50.10563 | 20.12659 | 4016 ft | 210 kts | 299° |
| 2026-05-06 15:25 | 50.11339 | 20.10748 | 4016 ft | 208 kts | 299° |
| 2026-05-06 15:25 | 50.11880 | 20.08691 | 4017 ft | 207 kts | 274° |
| 2026-05-06 15:25 | 50.11740 | 20.06487 | 3922 ft | 203 kts | 257° |
| 2026-05-06 15:25 | 50.11437 | 20.04370 | 3665 ft | 197 kts | 255° |
| 2026-05-06 15:26 | 50.11115 | 20.02322 | 3406 ft | 193 kts | 255° |
| 2026-05-06 15:26 | 50.10808 | 20.00302 | 3161 ft | 190 kts | 255° |
| 2026-05-06 15:26 | 50.10523 | 19.98328 | 3008 ft | 182 kts | 256° |
| 2026-05-06 15:26 | 50.10266 | 19.96466 | 2998 ft | 170 kts | 256° |
| 2026-05-06 15:27 | 50.10019 | 19.94692 | 2941 ft | 168 kts | 256° |
| 2026-05-06 15:27 | 50.09785 | 19.92996 | 2746 ft | 154 kts | 256° |
| 2026-05-06 15:27 | 50.09570 | 19.91419 | 2494 ft | 142 kts | 254° |
| 2026-05-06 15:27 | 50.09370 | 19.89962 | 2270 ft | 137 kts | 255° |
| 2026-05-06 15:28 | 50.09165 | 19.88503 | 2057 ft | 137 kts | 255° |
| 2026-05-06 15:28 | 50.08969 | 19.87092 | 1838 ft | 129 kts | 256° |
| 2026-05-06 15:28 | 50.08825 | 19.85770 | 1682 ft | 121 kts | 270° |
| 2026-05-06 15:28 | 50.09103 | 19.84452 | 1724 ft | 140 kts | 284° |
| 2026-05-06 15:29 | 50.09382 | 19.82966 | 1699 ft | 140 kts | 283° |
| 2026-05-06 15:29 | 50.09649 | 19.81550 | 1707 ft | 131 kts | 282° |
| 2026-05-06 15:29 | 50.09895 | 19.80199 | 1713 ft | 130 kts | 281° |
| 2026-05-06 15:29 | 50.09838 | 19.78840 | 1674 ft | 131 kts | 255° |
| 2026-05-06 15:30 | 50.09641 | 19.77400 | 1697 ft | 140 kts | 257° |
| 2026-05-06 15:30 | 50.09437 | 19.75936 | 1680 ft | 136 kts | 259° |
| 2026-05-06 15:30 | 50.09244 | 19.74491 | 1699 ft | 136 kts | 257° |
| 2026-05-06 15:30 | 50.09048 | 19.73030 | 1698 ft | 141 kts | 256° |
| 2026-05-06 15:31 | 50.08785 | 19.71551 | 1618 ft | 139 kts | 241° |
| 2026-05-06 15:31 | 50.08004 | 19.70944 | 1713 ft | 134 kts | 176° |
| 2026-05-06 15:31 | 50.07264 | 19.71869 | 1720 ft | 147 kts | 122° |
| 2026-05-06 15:32 | 50.07314 | 19.75122 | 1110 ft | 149 kts | 76° |
| 2026-05-06 15:32 | 50.07531 | 19.76702 | 879 ft | 149 kts | 76° |
| 2026-05-06 15:32 | 50.07731 | 19.78179 | 799 ft | 113 kts | 78° |
| 2026-05-06 15:32 | 50.07839 | 19.78952 | 801 ft | 32 kts | 78° |
| 2026-05-06 15:33 | 50.07819 | 19.79056 | 800 ft | 11 kts | 141° |
| 2026-05-06 15:33 | 50.07719 | 19.79098 | 800 ft | 18 kts | 168° |
| 2026-05-06 15:33 | 50.07680 | 19.79111 | 800 ft | 0 kts | 168° |
| 2026-05-06 15:33 | 50.07667 | 19.79115 | 800 ft | 7 kts | 168° |
| 2026-05-06 15:34 | 50.07621 | 19.79193 | 800 ft | 14 kts | 95° |
| 2026-05-06 15:34 | 50.07643 | 19.79373 | 800 ft | 20 kts | 78° |
| 2026-05-06 15:34 | 50.07676 | 19.79611 | 800 ft | 19 kts | 77° |
| 2026-05-06 15:34 | 50.07632 | 19.79704 | 800 ft | 8 kts | 177° |
| 2026-05-06 15:35 | 50.07618 | 19.79664 | 800 ft | 6 kts | 254° |
| 2026-05-06 15:35 | 50.07612 | 19.79621 | 800 ft | 0 kts | 264° |
| 2026-05-06 15:35 | 50.07611 | 19.79621 | 800 ft | 0 kts | 258° |